sensor_id;sensor_type;location;lat;lon;timestamp;temperature;humidity
56436;DHT22;42335;44.872;20.658;2024-01-06T17:06:28;256.40;2252.80
56436;DHT22;42335;44.872;20.658;2024-01-06T17:10:56;256.40;2252.80
56436;DHT22;42335;44.872;20.658;2024-01-06T17:13:21;256.50;2252.80
56436;DHT22;42335;44.872;20.658;2024-01-06T17:15:47;256.50;2252.80
56436;DHT22;42335;44.872;20.658;2024-01-06T17:18:28;256.80;2252.80
56436;DHT22;42335;44.872;20.658;2024-01-06T17:20:54;256.80;2252.80
56436;DHT22;42335;44.872;20.658;2024-01-06T17:25:15;281.60;2278.40
56436;DHT22;42335;44.872;20.658;2024-01-06T17:28:24;281.60;2278.40
56436;DHT22;42335;44.872;20.658;2024-01-06T17:35:43;281.80;2278.40
56436;DHT22;42335;44.872;20.658;2024-01-06T17:38:10;281.70;2278.40
56436;DHT22;42335;44.872;20.658;2024-01-06T17:42:32;281.80;2278.40
56436;DHT22;42335;44.872;20.658;2024-01-06T17:44:59;281.70;2278.40
56436;DHT22;42335;44.872;20.658;2024-01-06T17:48:56;281.80;2278.40
56436;DHT22;42335;44.872;20.658;2024-01-06T17:51:22;281.70;2278.40
56436;DHT22;42335;44.872;20.658;2024-01-06T17:53:50;281.70;2278.40
56436;DHT22;42335;44.872;20.658;2024-01-06T17:56:17;281.70;2278.40
56436;DHT22;42335;44.872;20.658;2024-01-06T17:58:44;281.70;2278.40
56436;DHT22;42335;44.872;20.658;2024-01-06T18:01:11;281.70;2278.40
56436;DHT22;42335;44.872;20.658;2024-01-06T18:03:36;281.70;2278.40
56436;DHT22;42335;44.872;20.658;2024-01-06T18:06:02;281.80;2278.40
56436;DHT22;42335;44.872;20.658;2024-01-06T18:08:28;281.70;2278.40
56436;DHT22;42335;44.872;20.658;2024-01-06T18:16:32;281.80;2278.40
56436;DHT22;42335;44.872;20.658;2024-01-06T18:18:58;281.70;2278.40
56436;DHT22;42335;44.872;20.658;2024-01-06T18:22:17;281.80;2278.40
56436;DHT22;42335;44.872;20.658;2024-01-06T18:24:43;281.70;2278.40
56436;DHT22;42335;44.872;20.658;2024-01-06T18:27:09;281.70;2278.40
56436;DHT22;42335;44.872;20.658;2024-01-06T18:30:38;281.80;2278.40
56436;DHT22;42335;44.872;20.658;2024-01-06T18:33:04;281.70;2278.40
56436;DHT22;42335;44.872;20.658;2024-01-06T18:35:30;281.70;2278.40
56436;DHT22;42335;44.872;20.658;2024-01-06T18:37:56;281.70;2278.40
56436;DHT22;42335;44.872;20.658;2024-01-06T18:40:22;281.70;2278.40
56436;DHT22;42335;44.872;20.658;2024-01-06T18:42:48;281.70;2278.40
56436;DHT22;42335;44.872;20.658;2024-01-06T18:45:14;281.70;2278.40
56436;DHT22;42335;44.872;20.658;2024-01-06T18:47:39;281.90;2278.40
56436;DHT22;42335;44.872;20.658;2024-01-06T18:50:08;281.70;2278.40
56436;DHT22;42335;44.872;20.658;2024-01-06T18:52:34;281.60;2278.40
56436;DHT22;42335;44.872;20.658;2024-01-06T18:55:00;281.60;2278.40
56436;DHT22;42335;44.872;20.658;2024-01-06T18:57:26;281.60;2278.40
56436;DHT22;42335;44.872;20.658;2024-01-06T18:59:52;281.60;2278.40
56436;DHT22;42335;44.872;20.658;2024-01-06T19:02:18;281.60;2278.40
56436;DHT22;42335;44.872;20.658;2024-01-06T19:04:43;281.60;2278.40
56436;DHT22;42335;44.872;20.658;2024-01-06T19:07:11;281.60;2278.40
56436;DHT22;42335;44.872;20.658;2024-01-06T19:09:37;281.60;2278.40
56436;DHT22;42335;44.872;20.658;2024-01-06T19:12:03;281.60;2278.40
56436;DHT22;42335;44.872;20.658;2024-01-06T19:14:31;256.90;2252.80
56436;DHT22;42335;44.872;20.658;2024-01-06T19:17:01;256.90;2252.80
56436;DHT22;42335;44.872;20.658;2024-01-06T19:19:27;256.90;2252.80
56436;DHT22;42335;44.872;20.658;2024-01-06T19:21:53;256.90;2252.80
56436;DHT22;42335;44.872;20.658;2024-01-06T19:24:19;256.80;2252.80
56436;DHT22;42335;44.872;20.658;2024-01-06T19:26:45;256.80;2252.80
56436;DHT22;42335;44.872;20.658;2024-01-06T19:29:10;256.80;2252.80
56436;DHT22;42335;44.872;20.658;2024-01-06T19:31:36;256.80;2252.80
56436;DHT22;42335;44.872;20.658;2024-01-06T19:34:02;256.70;2252.80
56436;DHT22;42335;44.872;20.658;2024-01-06T19:36:28;256.70;2252.80
56436;DHT22;42335;44.872;20.658;2024-01-06T19:38:54;256.60;2252.80
56436;DHT22;42335;44.872;20.658;2024-01-06T19:41:20;256.60;2252.80
56436;DHT22;42335;44.872;20.658;2024-01-06T19:43:46;256.60;2252.80
56436;DHT22;42335;44.872;20.658;2024-01-06T19:46:12;256.60;2252.80
56436;DHT22;42335;44.872;20.658;2024-01-06T19:48:38;256.60;2252.80
56436;DHT22;42335;44.872;20.658;2024-01-06T19:51:04;256.60;2252.80
56436;DHT22;42335;44.872;20.658;2024-01-06T19:53:30;256.60;2252.80
56436;DHT22;42335;44.872;20.658;2024-01-06T19:55:57;256.50;2252.80
56436;DHT22;42335;44.872;20.658;2024-01-06T19:58:22;256.50;2252.80
56436;DHT22;42335;44.872;20.658;2024-01-06T20:00:49;256.50;2252.80
56436;DHT22;42335;44.872;20.658;2024-01-06T20:03:15;256.50;2252.80
